createdAt,value
2022-10-12T00:01:19.866Z,1.00
2022-10-12T00:03:46.769Z,1.00
2022-10-12T00:06:22.015Z,1.00
2022-10-12T00:08:50.633Z,1.00
2022-10-12T00:11:29.186Z,1.00
2022-10-12T00:13:57.880Z,1.00
2022-10-12T00:16:26.467Z,1.00
2022-10-12T00:18:55.258Z,1.00
2022-10-12T00:21:23.484Z,1.00
2022-10-12T00:23:50.422Z,1.00
2022-10-12T00:26:19.968Z,1.00
2022-10-12T00:28:47.442Z,1.00
2022-10-12T00:31:20.096Z,1.00
2022-10-12T00:33:48.769Z,1.00
2022-10-12T00:36:17.349Z,1.00
2022-10-12T00:38:44.412Z,1.00
2022-10-12T00:41:12.870Z,1.00
2022-10-12T00:43:42.179Z,1.00
2022-10-12T00:46:16.872Z,1.00
2022-10-12T00:48:45.862Z,1.00
2022-10-12T00:51:13.667Z,1.00
2022-10-12T00:53:50.678Z,1.00
2022-10-12T00:56:23.677Z,1.00
2022-10-12T00:58:51.450Z,1.00
2022-10-12T01:01:19.097Z,1.00
2022-10-12T01:03:46.202Z,1.00
2022-10-12T01:06:13.208Z,1.00
2022-10-12T01:08:40.500Z,1.00
2022-10-12T01:11:07.361Z,1.00
2022-10-12T01:13:34.219Z,1.00
2022-10-12T01:16:29.155Z,1.00
2022-10-12T01:19:24.940Z,1.00
2022-10-12T01:22:03.424Z,1.00
2022-10-12T01:25:02.355Z,1.00
2022-10-12T01:27:50.117Z,1.00
2022-10-12T01:30:19.442Z,1.00
2022-10-12T01:33:09.645Z,1.00
2022-10-12T01:36:18.544Z,1.00
2022-10-12T01:39:08.761Z,1.00
2022-10-12T01:41:46.870Z,1.00
2022-10-12T01:44:21.698Z,1.00
2022-10-12T01:46:48.678Z,1.00
2022-10-12T01:49:21.114Z,1.00
2022-10-12T01:52:10.655Z,1.00
2022-10-12T01:54:43.589Z,1.00
2022-10-12T01:57:16.585Z,1.00
2022-10-12T01:59:55.183Z,1.00
2022-10-12T02:02:59.190Z,1.00
2022-10-12T02:05:29.023Z,1.00
2022-10-12T02:08:16.194Z,1.00
2022-10-12T02:11:16.709Z,1.00
2022-10-12T02:13:55.131Z,1.00
2022-10-12T02:16:29.858Z,1.00
2022-10-12T02:18:59.229Z,1.00
2022-10-12T02:21:31.132Z,1.00
2022-10-12T02:24:01.913Z,1.00
2022-10-12T02:26:30.157Z,1.00
2022-10-12T02:28:58.513Z,1.00
2022-10-12T02:31:42.864Z,1.00
2022-10-12T02:34:16.577Z,1.00
2022-10-12T02:37:02.656Z,1.00
2022-10-12T02:39:40.816Z,1.00
2022-10-12T02:42:15.414Z,1.00
2022-10-12T02:44:43.596Z,1.00
2022-10-12T02:47:12.503Z,1.00
2022-10-12T02:49:41.499Z,1.00
2022-10-12T02:52:08.853Z,1.00
2022-10-12T02:54:36.663Z,1.00
2022-10-12T02:57:03.571Z,1.00
2022-10-12T02:59:30.477Z,1.00
2022-10-12T03:01:57.349Z,1.00
2022-10-12T03:04:24.109Z,1.00
2022-10-12T03:06:50.946Z,1.00
2022-10-12T03:09:17.731Z,1.00
2022-10-12T03:11:44.939Z,1.00
2022-10-12T03:14:15.278Z,1.00
2022-10-12T03:16:42.606Z,1.00
2022-10-12T03:19:09.560Z,1.00
2022-10-12T03:21:36.494Z,1.00
2022-10-12T03:24:03.458Z,1.00
2022-10-12T03:26:30.308Z,1.00
2022-10-12T03:28:57.229Z,1.00
2022-10-12T03:31:24.101Z,1.00
2022-10-12T03:33:51.223Z,1.00
2022-10-12T03:36:18.648Z,1.00
2022-10-12T03:38:45.417Z,1.00
2022-10-12T03:41:12.313Z,1.00
2022-10-12T03:43:39.177Z,1.00
2022-10-12T03:46:06.068Z,1.00
2022-10-12T03:48:32.977Z,1.00
2022-10-12T03:50:59.783Z,1.00
2022-10-12T03:53:26.638Z,1.00
2022-10-12T03:55:53.454Z,1.00
2022-10-12T03:58:20.323Z,1.00
2022-10-12T04:00:47.192Z,1.00
2022-10-12T04:03:13.969Z,1.00
2022-10-12T04:05:41.004Z,1.00
2022-10-12T04:08:07.830Z,1.00
2022-10-12T04:10:34.761Z,2.30
2022-10-12T04:13:01.580Z,3.20
2022-10-12T04:15:28.471Z,4.80
2022-10-12T04:17:55.305Z,11.30
2022-10-12T04:20:22.125Z,13.80
2022-10-12T04:22:48.956Z,15.10
2022-10-12T04:25:15.853Z,17.10
2022-10-12T04:27:42.648Z,13.80
2022-10-12T04:30:10.296Z,21.40
2022-10-12T04:32:37.203Z,21.40
2022-10-12T04:35:04.145Z,18.60
2022-10-12T04:37:31.039Z,3.90
2022-10-12T04:39:57.888Z,1.10
2022-10-12T04:42:24.753Z,8.40
2022-10-12T04:44:51.635Z,13.50
2022-10-12T04:47:18.463Z,16.40
2022-10-12T04:49:45.637Z,21.20
2022-10-12T04:52:12.457Z,16.70
2022-10-12T04:54:39.790Z,11.40
2022-10-12T04:57:06.586Z,15.50
2022-10-12T04:59:33.395Z,10.20
2022-10-12T05:02:00.264Z,6.60
2022-10-12T05:04:27.216Z,3.80
2022-10-12T05:06:54.733Z,12.20
2022-10-12T05:09:21.584Z,15.40
2022-10-12T05:11:48.395Z,18.30
2022-10-12T05:14:15.144Z,18.60
2022-10-12T05:16:41.948Z,21.00
2022-10-12T05:19:08.894Z,31.90
2022-10-12T05:21:35.821Z,35.80
2022-10-12T05:24:02.661Z,34.50
2022-10-12T05:26:29.489Z,28.60
2022-10-12T05:28:56.338Z,30.00
2022-10-12T05:31:23.169Z,21.60
2022-10-12T05:33:50.056Z,12.50
2022-10-12T05:36:16.854Z,9.90
2022-10-12T05:38:43.676Z,15.00
2022-10-12T05:41:10.539Z,7.70
2022-10-12T05:43:37.354Z,1.00
2022-10-12T05:46:04.776Z,1.00
2022-10-12T05:48:31.673Z,1.00
2022-10-12T05:50:58.504Z,1.00
2022-10-12T05:53:25.730Z,1.00
2022-10-12T05:55:54.812Z,1.00
2022-10-12T05:58:22.899Z,1.00
2022-10-12T06:00:49.846Z,1.00
2022-10-12T06:03:18.899Z,1.00
2022-10-12T06:05:46.235Z,1.00
2022-10-12T06:08:13.446Z,1.00
2022-10-12T06:10:47.340Z,1.00
2022-10-12T06:13:14.411Z,1.00
2022-10-12T06:15:41.212Z,1.00
2022-10-12T06:18:07.990Z,1.00
2022-10-12T06:20:34.864Z,1.00
2022-10-12T06:23:01.655Z,1.00
2022-10-12T06:25:28.567Z,1.00
2022-10-12T06:27:55.430Z,1.00
2022-10-12T06:30:22.384Z,1.00
2022-10-12T06:32:49.276Z,1.00
2022-10-12T06:35:16.130Z,1.00
2022-10-12T06:37:51.885Z,1.00
2022-10-12T06:40:19.303Z,1.00
2022-10-12T06:42:46.457Z,1.00
2022-10-12T06:45:13.384Z,1.00
2022-10-12T06:47:40.412Z,1.00
2022-10-12T06:50:08.229Z,1.00
2022-10-12T06:52:36.119Z,1.00
2022-10-12T06:55:04.057Z,1.00
2022-10-12T06:57:30.982Z,1.00
2022-10-12T06:59:57.911Z,1.00
2022-10-12T07:02:24.723Z,1.00
2022-10-12T07:04:52.633Z,1.00
2022-10-12T07:07:19.959Z,1.00
2022-10-12T07:09:46.792Z,1.00
2022-10-12T07:12:13.593Z,1.00
2022-10-12T07:14:40.536Z,1.00
2022-10-12T07:17:07.514Z,1.00
2022-10-12T07:19:34.403Z,1.00
2022-10-12T07:22:01.631Z,1.00
2022-10-12T07:24:36.714Z,1.00
2022-10-12T07:27:05.231Z,1.00
2022-10-12T07:29:32.669Z,1.00
2022-10-12T07:32:00.047Z,1.00
2022-10-12T07:34:27.809Z,1.00
2022-10-12T07:36:59.476Z,1.00
2022-10-12T07:39:27.084Z,1.00
2022-10-12T07:41:54.687Z,1.00
2022-10-12T07:44:22.582Z,1.00
2022-10-12T07:46:49.426Z,1.00
2022-10-12T07:49:16.895Z,1.00
2022-10-12T07:51:44.323Z,1.00
2022-10-12T07:54:11.217Z,1.00
2022-10-12T07:56:38.801Z,99.90
2022-10-12T07:59:05.585Z,99.90
2022-10-12T08:01:33.354Z,99.90
2022-10-12T08:04:02.036Z,99.90
2022-10-12T08:06:32.629Z,15.60
2022-10-12T08:09:00.862Z,1.00
2022-10-12T08:11:27.792Z,99.90
2022-10-12T08:13:56.063Z,99.90
2022-10-12T08:16:23.333Z,99.90
2022-10-12T08:18:50.247Z,23.90
2022-10-12T08:21:18.047Z,99.90
2022-10-12T08:23:45.746Z,99.90
2022-10-12T08:26:13.951Z,99.90
2022-10-12T08:28:40.917Z,99.90
2022-10-12T08:31:09.663Z,1.00
2022-10-12T08:33:37.072Z,99.90
2022-10-12T08:36:05.555Z,99.90
2022-10-12T08:38:32.873Z,1.00
2022-10-12T08:41:24.446Z,1.00
2022-10-12T08:44:02.393Z,1.00
2022-10-12T08:46:29.974Z,1.00
2022-10-12T08:49:16.468Z,1.00
2022-10-12T08:51:53.076Z,99.90
2022-10-12T08:54:22.941Z,99.90
2022-10-12T08:56:55.265Z,25.00
2022-10-12T08:59:22.303Z,1.00
2022-10-12T09:02:49.725Z,1.00
2022-10-12T09:05:57.218Z,1.00
2022-10-12T09:08:47.006Z,1.00
2022-10-12T09:11:44.560Z,1.00
2022-10-12T09:14:19.470Z,1.00
2022-10-12T09:16:48.361Z,1.00
2022-10-12T09:19:25.013Z,1.00
2022-10-12T09:21:51.842Z,1.00
2022-10-12T09:24:22.461Z,1.00
2022-10-12T09:26:52.667Z,1.00
2022-10-12T09:29:31.343Z,1.00
2022-10-12T09:32:20.606Z,1.00
2022-10-12T09:34:49.108Z,1.00
2022-10-12T09:37:20.904Z,1.00
2022-10-12T09:39:48.530Z,1.00
2022-10-12T09:42:15.821Z,1.00
2022-10-12T09:44:52.709Z,1.00
2022-10-12T09:47:27.361Z,1.00
2022-10-12T09:49:59.544Z,1.00
2022-10-12T09:52:29.150Z,1.00
2022-10-12T09:55:04.881Z,1.00
2022-10-12T09:57:41.948Z,1.00
2022-10-12T10:00:24.062Z,1.00
2022-10-12T10:02:52.132Z,1.00
2022-10-12T10:05:26.162Z,1.00
2022-10-12T10:07:53.860Z,1.00
2022-10-12T10:10:30.051Z,1.00
2022-10-12T10:13:01.289Z,1.00
2022-10-12T10:15:29.631Z,1.00
2022-10-12T10:18:02.227Z,1.00
2022-10-12T10:20:39.389Z,1.00
2022-10-12T10:23:06.580Z,1.00
2022-10-12T10:25:34.332Z,1.00
2022-10-12T10:28:21.545Z,1.00
2022-10-12T10:31:03.989Z,1.00
2022-10-12T10:33:36.158Z,1.00
2022-10-12T10:36:26.435Z,1.00
2022-10-12T10:39:02.452Z,1.00
2022-10-12T10:41:37.300Z,1.00
2022-10-12T10:44:05.574Z,1.00
2022-10-12T10:46:35.958Z,1.00
2022-10-12T10:49:07.196Z,1.00
2022-10-12T10:51:56.886Z,1.00
2022-10-12T10:54:23.713Z,1.00
2022-10-12T10:56:53.285Z,1.00
2022-10-12T10:59:44.081Z,1.00
2022-10-12T11:02:26.052Z,1.00
2022-10-12T11:05:12.584Z,1.00
2022-10-12T11:07:50.235Z,1.00
2022-10-12T11:10:36.052Z,1.00
2022-10-12T11:13:12.489Z,1.00
2022-10-12T11:15:48.308Z,1.00
2022-10-12T11:18:27.481Z,1.00
2022-10-12T11:21:01.756Z,1.00
2022-10-12T11:23:37.229Z,1.00
2022-10-12T11:26:06.851Z,1.00
2022-10-12T11:28:34.637Z,1.00
2022-10-12T11:31:02.442Z,1.00
2022-10-12T11:33:39.150Z,1.00
2022-10-12T11:36:14.943Z,1.00
2022-10-12T11:38:49.996Z,1.00
2022-10-12T11:41:36.540Z,1.00
2022-10-12T11:44:18.028Z,1.00
2022-10-12T11:46:49.312Z,1.00
2022-10-12T11:49:37.090Z,1.00
2022-10-12T11:52:09.995Z,1.00
2022-10-12T11:54:39.657Z,1.00
2022-10-12T11:57:13.077Z,1.00
2022-10-12T11:59:47.617Z,1.00
2022-10-12T12:02:32.601Z,1.00
2022-10-12T12:05:01.986Z,1.00
2022-10-12T12:07:56.869Z,1.00
2022-10-12T12:10:27.669Z,1.00
2022-10-12T12:13:15.456Z,1.00
2022-10-12T12:15:43.988Z,1.00
2022-10-12T12:18:12.563Z,1.00
2022-10-12T12:20:45.301Z,1.00
2022-10-12T12:23:25.637Z,1.00
2022-10-12T12:26:15.804Z,1.00
2022-10-12T12:29:10.015Z,1.00
2022-10-12T12:31:37.509Z,1.00
2022-10-12T12:34:06.004Z,1.00
2022-10-12T12:36:36.772Z,1.00
2022-10-12T12:39:06.735Z,1.00
2022-10-12T12:42:01.345Z,1.00
2022-10-12T12:44:37.924Z,1.00
2022-10-12T12:47:25.997Z,1.00
2022-10-12T12:50:29.918Z,1.00
2022-10-12T12:53:06.705Z,1.00
2022-10-12T12:55:45.312Z,1.00
2022-10-12T12:58:32.943Z,1.00
2022-10-12T13:00:59.813Z,1.00
2022-10-12T13:03:39.012Z,1.00
2022-10-12T13:06:14.625Z,1.00
2022-10-12T13:09:25.318Z,1.00
2022-10-12T13:12:24.392Z,1.00
2022-10-12T13:15:22.221Z,1.00
2022-10-12T13:18:18.474Z,1.00
2022-10-12T13:20:54.757Z,1.00
2022-10-12T13:23:24.900Z,1.00
2022-10-12T13:26:01.241Z,1.00
2022-10-12T13:28:30.643Z,1.00
2022-10-12T13:31:37.544Z,1.00
2022-10-12T13:34:07.669Z,1.00
2022-10-12T13:36:46.608Z,1.00
2022-10-12T13:39:19.316Z,1.00
2022-10-12T13:41:48.345Z,1.00
2022-10-12T13:44:27.162Z,6.20
2022-10-12T13:47:02.289Z,29.60
2022-10-12T13:49:33.370Z,28.20
2022-10-12T13:52:21.844Z,92.80
2022-10-12T13:54:50.050Z,99.90
2022-10-12T13:57:41.243Z,99.90
2022-10-12T14:00:20.415Z,99.90
2022-10-12T14:03:08.624Z,99.90
2022-10-12T14:05:43.829Z,73.90
2022-10-12T14:08:19.456Z,97.80
2022-10-12T14:10:46.705Z,99.90
2022-10-12T14:13:15.157Z,99.90
2022-10-12T14:15:42.464Z,99.90
2022-10-12T14:18:32.156Z,99.90
2022-10-12T14:21:32.194Z,99.90
2022-10-12T14:24:09.493Z,99.90
2022-10-12T14:26:44.897Z,99.90
2022-10-12T14:29:40.846Z,99.90
2022-10-12T14:32:10.668Z,99.90
2022-10-12T14:35:03.770Z,99.90
2022-10-12T14:37:30.925Z,99.90
2022-10-12T14:40:00.964Z,99.90
2022-10-12T14:42:37.132Z,99.90
2022-10-12T14:45:06.656Z,99.90
2022-10-12T14:47:38.088Z,99.90
2022-10-12T14:50:08.696Z,99.90
2022-10-12T14:52:44.205Z,99.90
2022-10-12T14:55:16.794Z,99.90
2022-10-12T14:57:44.029Z,99.90
2022-10-12T15:00:18.495Z,99.90
2022-10-12T15:02:45.488Z,99.90
2022-10-12T15:05:13.678Z,99.90
2022-10-12T15:07:40.619Z,99.90
2022-10-12T15:10:08.367Z,99.90
2022-10-12T15:12:35.621Z,99.90
2022-10-12T15:15:30.139Z,1.00
2022-10-12T15:17:57.949Z,1.00
2022-10-12T15:20:26.168Z,1.00
2022-10-12T15:22:53.015Z,1.00
2022-10-12T15:25:27.937Z,99.90
2022-10-12T15:27:54.762Z,99.90
2022-10-12T15:30:21.592Z,1.00
2022-10-12T15:32:48.422Z,1.00
2022-10-12T15:35:25.065Z,1.00
2022-10-12T15:37:52.187Z,1.00
2022-10-12T15:40:20.411Z,1.00
2022-10-12T15:42:48.026Z,1.00
2022-10-12T15:45:22.998Z,1.00
2022-10-12T15:47:51.485Z,99.90
2022-10-12T15:50:21.963Z,99.90
2022-10-12T15:52:48.859Z,99.90
2022-10-12T15:55:21.214Z,99.90
2022-10-12T15:57:48.605Z,99.90
2022-10-12T16:00:17.621Z,1.00
2022-10-12T16:02:44.798Z,1.00
2022-10-12T16:05:21.670Z,1.00
2022-10-12T16:07:49.203Z,1.00
2022-10-12T16:10:17.462Z,29.00
2022-10-12T16:12:46.965Z,99.90
2022-10-12T16:15:16.091Z,99.90
2022-10-12T16:17:42.901Z,1.00
2022-10-12T16:20:10.687Z,1.00
2022-10-12T16:22:37.925Z,99.90
2022-10-12T16:25:06.968Z,99.90
2022-10-12T16:27:33.896Z,99.90
2022-10-12T16:30:01.131Z,1.00
2022-10-12T16:32:28.796Z,1.00
2022-10-12T16:34:55.634Z,1.00
2022-10-12T16:37:22.827Z,1.00
2022-10-12T16:39:52.442Z,1.00
2022-10-12T16:42:19.240Z,1.00
2022-10-12T16:44:46.498Z,1.00
2022-10-12T16:47:14.049Z,99.90
2022-10-12T16:49:41.314Z,1.00
2022-10-12T16:52:08.533Z,1.00
2022-10-12T16:54:35.373Z,42.80
2022-10-12T16:57:02.282Z,99.90
2022-10-12T16:59:29.173Z,99.90
2022-10-12T17:01:56.180Z,1.00
2022-10-12T17:04:23.059Z,13.20
2022-10-12T17:06:49.957Z,1.00
2022-10-12T17:09:16.803Z,1.00
2022-10-12T17:11:43.582Z,99.90
2022-10-12T17:14:14.317Z,99.90
2022-10-12T17:16:50.502Z,1.00
2022-10-12T17:19:31.932Z,1.00
2022-10-12T17:22:00.977Z,99.90
2022-10-12T17:24:29.779Z,1.00
2022-10-12T17:26:57.796Z,99.90
2022-10-12T17:29:26.860Z,1.00
2022-10-12T17:31:55.210Z,43.00
2022-10-12T17:34:26.799Z,99.90
2022-10-12T17:36:55.803Z,99.90
2022-10-12T17:39:23.876Z,1.00
2022-10-12T17:41:52.606Z,1.00
2022-10-12T17:44:20.204Z,1.00
2022-10-12T17:46:47.509Z,26.40
2022-10-12T17:49:17.990Z,61.40
2022-10-12T17:51:48.342Z,99.90
2022-10-12T17:54:16.061Z,99.90
2022-10-12T17:56:43.805Z,99.90
2022-10-12T17:59:14.159Z,99.90
2022-10-12T18:01:41.470Z,99.90
2022-10-12T18:04:08.869Z,99.90
2022-10-12T18:06:35.700Z,99.90
2022-10-12T18:09:03.907Z,99.90
2022-10-12T18:11:30.976Z,1.00
2022-10-12T18:13:58.183Z,1.00
2022-10-12T18:16:28.472Z,1.00
2022-10-12T18:18:56.163Z,1.00
2022-10-12T18:21:25.322Z,1.00
2022-10-12T18:23:52.851Z,1.00
2022-10-12T18:26:22.136Z,1.00
2022-10-12T18:28:53.205Z,1.00
2022-10-12T18:31:22.428Z,1.00
2022-10-12T18:33:50.418Z,1.00
2022-10-12T18:36:18.303Z,1.00
2022-10-12T18:38:45.434Z,1.00
2022-10-12T18:41:15.846Z,1.00
2022-10-12T18:43:42.771Z,1.00
2022-10-12T18:46:15.308Z,1.00
2022-10-12T18:48:42.423Z,1.00
2022-10-12T18:51:16.982Z,1.00
2022-10-12T18:53:43.796Z,1.00
2022-10-12T18:56:11.058Z,1.00
2022-10-12T18:58:42.000Z,1.00
2022-10-12T19:01:11.639Z,1.00
2022-10-12T19:03:38.617Z,1.00
2022-10-12T19:06:07.959Z,1.00
2022-10-12T19:08:36.511Z,1.00
2022-10-12T19:11:08.450Z,1.00
2022-10-12T19:13:39.206Z,1.00
2022-10-12T19:16:11.885Z,1.00
2022-10-12T19:18:39.566Z,1.00
2022-10-12T19:21:11.068Z,1.00
2022-10-12T19:23:38.284Z,1.00
2022-10-12T19:26:07.488Z,1.00
2022-10-12T19:28:34.899Z,1.00
2022-10-12T19:31:10.150Z,1.00
2022-10-12T19:33:37.404Z,1.00
2022-10-12T19:36:05.719Z,1.00
2022-10-12T19:38:32.878Z,1.00
2022-10-12T19:40:59.729Z,1.00
2022-10-12T19:43:26.919Z,1.00
2022-10-12T19:45:53.795Z,1.00
2022-10-12T19:48:20.662Z,1.00
2022-10-12T19:50:47.578Z,1.00
2022-10-12T19:53:14.649Z,1.00
2022-10-12T19:55:41.680Z,1.00
2022-10-12T19:58:08.657Z,1.00
2022-10-12T20:00:36.561Z,1.00
2022-10-12T20:03:04.556Z,1.00
2022-10-12T20:05:31.357Z,1.00
2022-10-12T20:07:58.288Z,1.00
2022-10-12T20:10:25.229Z,1.00
2022-10-12T20:12:52.030Z,1.00
2022-10-12T20:15:18.903Z,1.00
2022-10-12T20:17:45.721Z,1.00
2022-10-12T20:20:12.672Z,1.00
2022-10-12T20:22:39.471Z,1.00
2022-10-12T20:25:09.538Z,1.00
2022-10-12T20:27:36.927Z,1.00
2022-10-12T20:30:05.491Z,1.00
2022-10-12T20:32:34.617Z,1.00
2022-10-12T20:35:02.211Z,1.00
2022-10-12T20:37:29.021Z,1.00
2022-10-12T20:39:55.802Z,1.00
2022-10-12T20:42:23.091Z,1.00
2022-10-12T20:44:50.851Z,1.00
2022-10-12T20:47:18.171Z,1.00
2022-10-12T20:49:45.080Z,1.00
2022-10-12T20:52:11.851Z,1.00
2022-10-12T20:54:38.759Z,1.00
2022-10-12T20:57:05.936Z,1.00
2022-10-12T20:59:34.699Z,1.00
2022-10-12T21:02:01.559Z,1.00
2022-10-12T21:04:32.594Z,1.00
2022-10-12T21:07:01.653Z,1.00
2022-10-12T21:09:28.496Z,1.00
2022-10-12T21:11:55.286Z,1.00
2022-10-12T21:14:22.386Z,1.00
2022-10-12T21:16:49.193Z,1.00
2022-10-12T21:19:16.668Z,1.00
2022-10-12T21:21:44.464Z,1.00
2022-10-12T21:24:11.394Z,1.00
2022-10-12T21:26:38.344Z,1.00
2022-10-12T21:29:05.693Z,1.00
2022-10-12T21:31:33.170Z,4.00
2022-10-12T21:34:01.712Z,4.10
2022-10-12T21:36:29.844Z,1.00
2022-10-12T21:38:56.743Z,1.00
2022-10-12T21:41:26.067Z,1.00
2022-10-12T21:43:53.933Z,1.00
2022-10-12T21:46:26.814Z,1.00
2022-10-12T21:48:54.397Z,9.80
2022-10-12T21:51:22.848Z,18.40
2022-10-12T21:53:50.749Z,27.60
2022-10-12T21:56:20.515Z,36.40
2022-10-12T21:58:48.196Z,35.90
2022-10-12T22:01:19.474Z,36.00
2022-10-12T22:03:48.164Z,41.10
2022-10-12T22:06:18.430Z,39.50
2022-10-12T22:08:50.905Z,42.10
2022-10-12T22:11:18.036Z,53.10
2022-10-12T22:13:45.086Z,71.10
2022-10-12T22:16:14.972Z,63.00
2022-10-12T22:18:42.312Z,77.10
2022-10-12T22:21:18.137Z,88.00
2022-10-12T22:23:45.112Z,95.20
2022-10-12T22:26:16.042Z,87.50
2022-10-12T22:28:43.679Z,73.70
2022-10-12T22:31:12.187Z,68.90
2022-10-12T22:33:39.659Z,73.40
2022-10-12T22:36:07.813Z,77.00
2022-10-12T22:38:35.319Z,76.80
2022-10-12T22:41:07.953Z,76.30
2022-10-12T22:43:35.561Z,76.90
2022-10-12T22:46:02.525Z,73.00
2022-10-12T22:48:29.716Z,79.40
2022-10-12T22:50:56.853Z,70.00
2022-10-12T22:53:24.897Z,66.10
2022-10-12T22:56:00.506Z,68.00
2022-10-12T22:58:28.448Z,58.60
2022-10-12T23:01:22.279Z,44.60
2022-10-12T23:03:49.381Z,42.40
2022-10-12T23:06:17.679Z,48.00
2022-10-12T23:08:45.473Z,50.00
2022-10-12T23:11:17.940Z,39.10
2022-10-12T23:13:44.844Z,45.50
2022-10-12T23:16:17.619Z,40.70
2022-10-12T23:18:45.029Z,39.80
2022-10-12T23:21:17.299Z,39.60
2022-10-12T23:23:45.687Z,30.60
2022-10-12T23:26:18.400Z,43.00
2022-10-12T23:28:46.425Z,40.00
2022-10-12T23:31:15.622Z,41.30
2022-10-12T23:33:43.102Z,48.10
2022-10-12T23:36:13.258Z,43.00
2022-10-12T23:38:41.473Z,45.30
2022-10-12T23:41:09.498Z,51.80
2022-10-12T23:43:36.667Z,59.60
2022-10-12T23:46:04.903Z,54.40
2022-10-12T23:48:32.727Z,54.90
2022-10-12T23:50:59.716Z,55.80
2022-10-12T23:53:26.879Z,56.60
2022-10-12T23:55:54.108Z,54.50
2022-10-12T23:58:21.204Z,56.10
